Time;durP1;ratioP1;P1;durP2;ratioP2;P2;SDS_P1;SDS_P2;PMS_P1;PMS_P2;Temp;Humidity;BMP_temperature;BMP_pressure;BME280_temperature;BME280_humidity;BME280_pressure;Samples;Min_cycle;Max_cycle;Signal;HPM_P1;HPM_P2
2024/03/26 00:01:09;;;;;;;9.60;6.97;;;;;;;9.02;56.33;100001.88;5022445;28;20280;-76
2024/03/26 00:03:37;;;;;;;9.73;6.20;;;;;;;9.54;56.29;100000.28;5021235;28;20190;-78
2024/03/26 00:06:03;;;;;;;14.30;6.57;;;;;;;10.15;54.62;99989.06;5020175;28;20187;-77
2024/03/26 00:08:29;;;;;;;8.47;6.60;;;;;;;9.40;56.19;99988.16;5021438;28;20514;-78
2024/03/26 00:10:56;;;;;;;10.00;6.47;;;;;;;8.97;57.33;99993.22;5035819;28;20234;-77
2024/03/26 00:13:27;;;;;;;8.83;6.53;;;;;;;9.57;56.43;99989.91;5019179;28;20197;-77
2024/03/26 00:15:52;;;;;;;8.40;6.40;;;;;;;9.64;55.72;99989.03;5036860;28;20494;-76
2024/03/26 00:18:20;;;;;;;14.80;6.00;;;;;;;9.28;56.73;99993.28;5037426;28;20395;-78
2024/03/26 00:20:48;;;;;;;9.53;6.40;;;;;;;9.48;56.24;99992.47;5037895;28;20190;-79
2024/03/26 00:23:16;;;;;;;11.87;6.90;;;;;;;9.86;55.07;99989.06;5037402;28;20869;-77
2024/03/26 00:25:42;;;;;;;11.70;6.70;;;;;;;9.54;55.96;99995.97;5019382;28;20404;-78
2024/03/26 00:28:07;;;;;;;9.50;6.30;;;;;;;9.48;55.85;99990.72;5019440;28;20396;-76
2024/03/26 00:30:33;;;;;;;12.83;7.00;;;;;;;9.44;56.08;99984.69;5037115;28;20178;-76
2024/03/26 00:32:58;;;;;;;10.00;6.57;;;;;;;9.19;56.48;99977.69;5017742;28;20574;-77
2024/03/26 00:35:23;;;;;;;8.13;6.00;;;;;;;8.79;57.07;99987.91;5018578;28;20632;-75
2024/03/26 00:37:48;;;;;;;9.63;6.27;;;;;;;8.95;57.00;99983.66;5037610;28;20252;-76
2024/03/26 00:40:17;;;;;;;10.60;5.97;;;;;;;9.01;57.13;99981.06;5035962;28;20257;-77
2024/03/26 00:42:43;;;;;;;9.70;7.30;;;;;;;8.90;57.39;99983.63;5036403;28;20235;-77
2024/03/26 00:45:08;;;;;;;10.37;7.00;;;;;;;8.90;57.20;99975.81;5036179;28;20841;-76
2024/03/26 00:47:34;;;;;;;10.50;7.00;;;;;;;8.69;57.98;99976.63;5037890;28;20174;-75
2024/03/26 00:49:59;;;;;;;10.10;6.97;;;;;;;8.79;57.41;99985.31;5036611;28;20189;-77
2024/03/26 00:52:24;;;;;;;7.63;6.23;;;;;;;8.90;57.19;99976.72;5036561;28;20789;-76
2024/03/26 00:54:55;;;;;;;9.53;7.00;;;;;;;8.92;57.29;99971.50;5036881;28;20178;-76
2024/03/26 00:57:21;;;;;;;8.03;6.87;;;;;;;9.04;57.23;99963.75;5037300;28;20188;-77
2024/03/26 00:59:46;;;;;;;8.53;6.83;;;;;;;8.72;57.96;99967.09;5038778;28;20392;-78
2024/03/26 01:02:12;;;;;;;7.90;6.60;;;;;;;8.85;58.06;99961.94;5040125;28;20706;-75
2024/03/26 01:04:37;;;;;;;12.23;6.60;;;;;;;9.02;57.42;99964.59;5039476;28;20185;-74
2024/03/26 01:07:03;;;;;;;13.03;6.97;;;;;;;9.09;57.11;99959.44;5039515;28;20208;-79
2024/03/26 01:09:37;;;;;;;9.40;7.03;;;;;;;9.18;57.10;99957.72;5039877;28;20166;-78
2024/03/26 01:12:03;;;;;;;10.30;6.53;;;;;;;9.17;56.61;99954.25;5021561;28;20201;-77
2024/03/26 01:14:28;;;;;;;10.83;6.97;;;;;;;9.12;56.74;99955.09;5020862;28;20427;-77
2024/03/26 01:16:53;;;;;;;12.87;6.40;;;;;;;9.20;56.19;99956.88;5036816;28;20260;-77
2024/03/26 01:19:19;;;;;;;9.63;6.20;;;;;;;9.10;56.49;99948.16;5036466;28;20178;-78
2024/03/26 01:21:44;;;;;;;10.57;6.23;;;;;;;8.97;56.36;99956.81;5034862;28;20210;-78
2024/03/26 01:24:10;;;;;;;10.20;6.57;;;;;;;9.07;56.38;99953.34;5036791;28;20387;-77
2024/03/26 01:26:35;;;;;;;11.10;7.23;;;;;;;9.02;56.44;99946.41;5036346;28;20654;-76
2024/03/26 01:29:01;;;;;;;9.03;5.90;;;;;;;8.98;56.19;99948.13;5035148;28;20189;-77
2024/03/26 01:31:26;;;;;;;9.83;6.37;;;;;;;8.98;56.17;99944.66;5034279;28;20205;-75
2024/03/26 01:33:51;;;;;;;10.53;6.53;;;;;;;9.11;55.84;99946.44;5017000;28;20170;-77
2024/03/26 01:36:17;;;;;;;10.20;6.60;;;;;;;9.13;55.52;99943.84;5035627;28;20162;-77
2024/03/26 01:38:42;;;;;;;9.37;6.43;;;;;;;9.06;55.59;99946.41;5038637;28;20177;-74
2024/03/26 01:41:07;;;;;;;9.73;6.70;;;;;;;9.16;55.81;99936.94;5035423;28;20219;-76
2024/03/26 01:43:32;;;;;;;9.50;7.20;;;;;;;8.85;56.57;99948.94;5034595;28;20228;-76
2024/03/26 01:45:58;;;;;;;7.93;6.70;;;;;;;8.91;56.24;99935.97;5033497;28;20241;-76
2024/03/26 01:48:23;;;;;;;11.73;6.90;;;;;;;9.06;56.14;99935.16;5034064;28;20179;-77
2024/03/26 01:50:49;;;;;;;8.00;6.67;;;;;;;8.96;56.34;99941.19;5034831;28;20628;-76
2024/03/26 01:53:14;;;;;;;9.47;6.93;;;;;;;9.03;55.85;99937.75;5035222;28;20197;-75
2024/03/26 01:55:39;;;;;;;11.97;7.10;;;;;;;9.16;55.90;99946.44;5040094;28;20435;-76
2024/03/26 01:58:05;;;;;;;7.43;6.10;;;;;;;8.73;56.14;99941.97;5042158;28;20181;-77
2024/03/26 02:00:31;;;;;;;9.83;5.90;;;;;;;9.19;55.34;99926.53;5041880;28;20182;-77
2024/03/26 02:02:56;;;;;;;7.60;6.40;;;;;;;8.90;55.68;99931.63;5035827;28;20578;-77
2024/03/26 02:05:25;;;;;;;9.63;6.87;;;;;;;8.94;55.54;99930.78;5035081;28;20548;-77
2024/03/26 02:07:51;;;;;;;9.83;6.80;;;;;;;8.70;56.19;99929.84;5035200;28;20455;-76
2024/03/26 02:10:19;;;;;;;9.13;6.63;;;;;;;8.89;55.76;99920.38;5034816;28;20881;-76
2024/03/26 02:12:45;;;;;;;10.73;5.73;;;;;;;8.21;56.56;99926.94;5035320;28;20289;-76
2024/03/26 02:15:10;;;;;;;9.50;6.00;;;;;;;8.79;55.57;99915.16;5034845;28;20421;-78
2024/03/26 02:17:36;;;;;;;7.90;5.80;;;;;;;8.79;56.23;99917.75;5036400;28;20507;-80
2024/03/26 02:20:01;;;;;;;9.20;6.60;;;;;;;8.77;55.95;99929.00;5037331;28;20539;-80
2024/03/26 02:22:29;;;;;;;9.40;6.17;;;;;;;8.80;55.63;99927.28;5036826;28;20225;-77
2024/03/26 02:24:54;;;;;;;9.87;6.07;;;;;;;8.34;56.42;99931.34;5036648;28;20170;-75
2024/03/26 02:27:20;;;;;;;12.73;6.90;;;;;;;8.69;56.37;99930.69;5035605;28;20431;-77
2024/03/26 02:29:48;;;;;;;16.20;6.70;;;;;;;8.74;56.20;99921.19;5036018;28;20179;-77
2024/03/26 02:32:14;;;;;;;13.20;6.57;;;;;;;8.68;56.41;99918.56;5036171;28;20194;-78
2024/03/26 02:34:39;;;;;;;9.60;6.43;;;;;;;8.60;56.72;99925.47;5019385;28;20453;-77
2024/03/26 02:37:04;;;;;;;9.77;6.67;;;;;;;8.50;56.80;99911.56;5036315;28;20173;-77
2024/03/26 02:39:29;;;;;;;11.87;7.07;;;;;;;8.63;56.98;99917.66;5018991;28;20197;-76
2024/03/26 02:41:56;;;;;;;16.87;6.90;;;;;;;8.57;56.77;99920.25;5037041;28;20214;-75
2024/03/26 02:44:21;;;;;;;8.60;6.80;;;;;;;8.48;56.81;99921.06;5035027;28;20231;-76
2024/03/26 02:46:46;;;;;;;7.87;7.03;;;;;;;8.59;56.35;99922.00;5033646;28;20392;-77
2024/03/26 02:49:11;;;;;;;9.10;6.90;;;;;;;8.70;56.23;99922.06;5033733;28;20604;-78
2024/03/26 02:51:37;;;;;;;8.70;6.57;;;;;;;8.81;55.97;99919.50;5034134;28;20693;-76
2024/03/26 02:54:02;;;;;;;13.80;6.70;;;;;;;8.79;55.82;99913.41;5033219;28;20193;-77
2024/03/26 02:56:28;;;;;;;10.63;7.03;;;;;;;8.64;56.46;99918.56;5033069;28;20632;-78
2024/03/26 02:58:53;;;;;;;9.47;6.30;;;;;;;8.70;55.88;99921.16;5033276;28;20181;-76
2024/03/26 03:01:19;;;;;;;8.10;6.47;;;;;;;8.64;55.98;99921.16;5033332;28;20441;-75
2024/03/26 03:03:45;;;;;;;9.63;7.03;;;;;;;8.62;56.48;99912.47;5033357;28;20272;-77
2024/03/26 03:06:10;;;;;;;10.90;7.40;;;;;;;8.60;56.80;99912.47;5033399;28;20469;-77
2024/03/26 03:08:39;;;;;;;13.93;7.30;;;;;;;8.44;56.29;99911.50;5016368;28;20189;-77
2024/03/26 03:11:04;;;;;;;7.60;6.50;;;;;;;8.50;56.69;99910.72;5033237;28;20205;-77
2024/03/26 03:13:30;;;;;;;10.00;6.90;;;;;;;8.47;56.85;99905.47;5015227;28;20445;-76
2024/03/26 03:15:55;;;;;;;8.83;6.97;;;;;;;8.70;55.63;99909.06;5034108;28;20181;-76
2024/03/26 03:18:21;;;;;;;9.47;6.43;;;;;;;8.46;56.16;99908.94;5035037;28;20178;-77
2024/03/26 03:20:46;;;;;;;10.77;6.40;;;;;;;8.48;55.94;99909.81;5036868;28;20252;-76
2024/03/26 03:23:12;;;;;;;8.17;6.07;;;;;;;8.26;56.13;99904.47;5040061;28;20732;-75
2024/03/26 03:25:38;;;;;;;8.57;6.30;;;;;;;8.44;55.63;99901.09;5034356;28;20182;-75
2024/03/26 03:28:04;;;;;;;8.50;6.13;;;;;;;8.51;55.59;99894.22;5022134;28;20765;-76
2024/03/26 03:30:29;;;;;;;8.50;5.90;;;;;;;8.29;55.90;99899.28;5019847;28;20178;-77
2024/03/26 03:32:54;;;;;;;10.03;7.00;;;;;;;8.42;55.62;99895.03;5021289;28;20680;-75
2024/03/26 03:35:20;;;;;;;8.90;6.27;;;;;;;8.37;55.37;99897.59;5020294;28;20215;-75
2024/03/26 03:37:45;;;;;;;9.93;6.37;;;;;;;8.35;55.29;99895.84;5018344;28;20221;-76
2024/03/26 03:40:11;;;;;;;14.73;6.67;;;;;;;8.41;55.29;99888.09;5019617;28;20236;-76
2024/03/26 03:42:36;;;;;;;10.00;6.77;;;;;;;8.20;55.62;99899.25;5029139;28;20212;-77
2024/03/26 03:45:02;;;;;;;10.63;6.83;;;;;;;8.22;56.13;99887.16;5040647;28;20178;-77
2024/03/26 03:47:27;;;;;;;10.43;7.27;;;;;;;8.40;55.48;99888.97;5040568;28;20188;-77
2024/03/26 03:49:53;;;;;;;10.60;7.07;;;;;;;8.54;55.08;99889.06;5040052;28;20387;-77
2024/03/26 03:52:18;;;;;;;11.00;7.60;;;;;;;8.74;54.46;99882.22;5039136;28;20526;-75
2024/03/26 03:54:43;;;;;;;9.80;7.60;;;;;;;8.51;54.90;99876.06;5038708;28;20170;-76
2024/03/26 03:57:08;;;;;;;10.60;6.63;;;;;;;8.38;55.05;99872.53;5039113;28;20719;-76
2024/03/26 03:59:34;;;;;;;9.77;6.53;;;;;;;8.38;55.14;99868.19;5039116;28;20174;-76
2024/03/26 04:01:59;;;;;;;14.70;6.73;;;;;;;8.26;55.44;99873.31;5038778;28;20292;-77
2024/03/26 04:04:24;;;;;;;8.40;7.33;;;;;;;8.08;55.65;99869.75;5039152;28;20642;-75
2024/03/26 04:06:50;;;;;;;10.30;7.00;;;;;;;8.03;55.60;99866.25;5039487;28;20200;-77
2024/03/26 04:09:15;;;;;;;11.63;6.70;;;;;;;8.27;54.87;99865.53;5039107;28;20177;-76
2024/03/26 04:11:40;;;;;;;11.23;7.10;;;;;;;8.12;55.18;99867.19;5039323;28;20166;-77
2024/03/26 04:14:05;;;;;;;12.30;7.43;;;;;;;8.17;54.85;99857.69;5038783;28;20648;-78
2024/03/26 04:16:31;;;;;;;7.47;6.50;;;;;;;8.16;55.10;99867.22;5039027;28;20174;-77
2024/03/26 04:18:56;;;;;;;11.03;7.20;;;;;;;8.30;54.64;99859.50;5038693;28;20170;-75
2024/03/26 04:21:21;;;;;;;10.17;6.23;;;;;;;7.96;55.00;99853.25;5039758;28;20315;-77
2024/03/26 04:23:47;;;;;;;9.30;6.53;;;;;;;8.06;54.73;99857.63;5039026;28;20646;-75
2024/03/26 04:26:12;;;;;;;11.03;6.67;;;;;;;7.97;54.66;99853.28;5029546;28;20197;-77
2024/03/26 04:28:38;;;;;;;10.17;6.60;;;;;;;8.15;54.83;99856.84;5019362;28;20274;-77
2024/03/26 04:31:04;;;;;;;10.40;6.03;;;;;;;8.13;54.89;99853.34;5019271;28;20171;-76
2024/03/26 04:33:29;;;;;;;8.40;5.90;;;;;;;7.84;55.04;99857.50;5017641;28;20182;-75
2024/03/26 04:35:54;;;;;;;9.63;7.20;;;;;;;8.17;54.36;99848.19;5015876;28;20383;-77
2024/03/26 04:38:20;;;;;;;9.80;6.87;;;;;;;8.22;54.70;99856.00;5014596;28;20178;-77
2024/03/26 04:40:45;;;;;;;7.87;6.17;;;;;;;7.82;55.15;99861.81;5016058;28;20175;-76
2024/03/26 04:43:11;;;;;;;9.40;6.50;;;;;;;8.21;54.84;99846.47;5075903;22;20227;-76
2024/03/26 04:45:38;;;;;;;7.37;6.20;;;;;;;8.06;54.46;99849.84;5074459;28;20173;-76
2024/03/26 04:48:04;;;;;;;9.83;6.70;;;;;;;7.87;55.03;99844.53;5073302;28;20646;-76
2024/03/26 04:50:30;;;;;;;7.73;6.40;;;;;;;7.64;55.42;99841.78;5074483;28;20468;-76
2024/03/26 04:52:55;;;;;;;9.23;6.53;;;;;;;7.67;55.27;99841.84;5073074;28;20497;-76
2024/03/26 04:55:20;;;;;;;7.53;6.73;;;;;;;7.64;54.78;99840.94;5073003;28;20642;-76
2024/03/26 04:57:46;;;;;;;10.27;7.30;;;;;;;7.77;54.59;99834.97;5074306;28;20169;-76
2024/03/26 05:00:13;;;;;;;64.47;37.50;;;;;;;7.75;54.32;99836.69;5072674;28;20177;-76
2024/03/26 05:02:40;;;;;;;32.90;18.40;;;;;;;7.74;54.70;99833.22;5072661;28;20607;-76
2024/03/26 05:05:06;;;;;;;35.90;24.60;;;;;;;7.99;53.93;99825.56;5074295;28;20415;-76
2024/03/26 05:07:35;;;;;;;16.43;10.97;;;;;;;8.01;53.60;99816.09;5074203;28;20431;-74
2024/03/26 05:10:00;;;;;;;8.13;6.47;;;;;;;8.01;53.80;99815.19;5073760;28;20172;-76
2024/03/26 05:12:26;;;;;;;9.57;6.47;;;;;;;8.13;53.78;99798.81;5073758;28;20423;-75
2024/03/26 05:14:52;;;;;;;12.87;7.30;;;;;;;8.12;53.83;99797.09;5073577;28;20313;-76
2024/03/26 05:17:17;;;;;;;8.63;6.23;;;;;;;8.14;53.66;99792.78;5073613;28;20172;-76
2024/03/26 05:19:42;;;;;;;10.43;6.80;;;;;;;8.37;53.42;99790.25;5073593;28;20180;-76
2024/03/26 05:22:08;;;;;;;9.87;7.03;;;;;;;8.21;53.96;99787.63;5073120;28;20601;-75
2024/03/26 05:24:34;;;;;;;13.57;7.10;;;;;;;8.29;53.85;99784.19;5073368;28;20176;-75
2024/03/26 05:27:00;;;;;;;8.63;6.50;;;;;;;8.15;54.28;99778.94;5072216;28;20635;-75
2024/03/26 05:29:25;;;;;;;8.50;6.50;;;;;;;8.33;53.83;99781.59;5073939;28;20879;-76
2024/03/26 05:31:51;;;;;;;12.30;8.63;;;;;;;8.07;53.81;99774.56;5072117;28;20490;-77
2024/03/26 05:34:16;;;;;;;8.87;6.97;;;;;;;8.41;53.13;99769.50;5073643;28;20165;-77
2024/03/26 05:36:42;;;;;;;12.20;6.70;;;;;;;8.41;53.20;99772.09;5073535;28;20199;-76
2024/03/26 05:39:10;;;;;;;10.07;6.20;;;;;;;8.40;52.95;99770.38;5073635;28;20222;-76
2024/03/26 05:41:36;;;;;;;7.83;6.10;;;;;;;8.60;52.23;99766.97;5071262;28;20670;-76
2024/03/26 05:44:01;;;;;;;9.30;6.60;;;;;;;8.81;52.03;99760.06;5054111;28;20444;-75
2024/03/26 05:46:26;;;;;;;11.97;6.80;;;;;;;8.76;52.09;99760.94;5050590;28;20543;-76
2024/03/26 05:48:51;;;;;;;9.37;6.40;;;;;;;8.45;52.35;99766.91;5052860;28;20185;-76
2024/03/26 05:51:17;;;;;;;8.57;6.40;;;;;;;8.42;52.41;99760.84;5053090;28;20174;-76
2024/03/26 05:53:42;;;;;;;9.53;6.47;;;;;;;8.48;52.25;99760.00;5053289;28;20272;-77
2024/03/26 05:56:07;;;;;;;8.50;6.83;;;;;;;8.51;52.31;99760.03;5054001;28;20215;-76
2024/03/26 05:58:32;;;;;;;10.10;6.00;;;;;;;8.29;52.50;99759.06;5052419;28;20207;-76
2024/03/26 06:01:04;;;;;;;10.10;6.57;;;;;;;8.21;53.75;99765.97;5053587;28;20257;-76
2024/03/26 06:03:30;;;;;;;11.13;6.27;;;;;;;8.29;53.42;99766.84;5053288;28;20198;-75
2024/03/26 06:05:56;;;;;;;11.73;6.20;;;;;;;8.23;53.12;99759.06;5052584;28;20394;-76
2024/03/26 06:08:21;;;;;;;9.43;6.23;;;;;;;8.55;52.59;99755.69;5054701;28;20169;-76
2024/03/26 06:10:46;;;;;;;9.80;6.53;;;;;;;8.58;52.63;99748.78;5054151;28;20662;-76
2024/03/26 06:13:11;;;;;;;11.00;6.70;;;;;;;8.54;52.76;99748.78;5054162;28;20189;-75
2024/03/26 06:15:37;;;;;;;9.57;6.30;;;;;;;8.31;53.28;99738.28;5053751;28;20716;-76
2024/03/26 06:18:02;;;;;;;8.73;5.97;;;;;;;8.50;52.75;99734.06;5053488;28;20168;-76
2024/03/26 06:20:27;;;;;;;10.23;6.53;;;;;;;8.65;52.23;99726.28;5053343;28;20260;-76
2024/03/26 06:22:53;;;;;;;6.90;5.77;;;;;;;8.76;52.66;99719.34;5053460;28;20243;-77
2024/03/26 06:25:18;;;;;;;8.23;6.50;;;;;;;8.67;52.36;99721.94;5056297;28;20176;-77
2024/03/26 06:27:43;;;;;;;11.83;6.80;;;;;;;8.67;52.72;99719.34;5073262;28;20537;-76
2024/03/26 06:30:09;;;;;;;12.90;6.83;;;;;;;8.74;52.88;99721.09;5072634;28;20169;-75
2024/03/26 06:32:34;;;;;;;9.13;6.30;;;;;;;8.71;52.88;99718.50;5074099;28;20598;-75
2024/03/26 06:34:59;;;;;;;12.60;7.00;;;;;;;8.68;53.28;99710.69;5072915;28;20173;-76
2024/03/26 06:37:25;;;;;;;11.70;7.67;;;;;;;8.85;52.87;99720.22;5072844;28;20246;-76
2024/03/26 06:39:50;;;;;;;9.27;7.57;;;;;;;9.08;52.51;99721.09;5072383;28;20172;-77
2024/03/26 06:42:15;;;;;;;11.80;7.20;;;;;;;9.26;52.56;99709.78;5065635;28;20683;-75
2024/03/26 06:44:41;;;;;;;10.47;7.40;;;;;;;9.02;53.20;99712.44;5052671;28;20185;-76
2024/03/26 06:47:06;;;;;;;12.97;7.70;;;;;;;9.17;52.84;99714.16;5052176;28;20177;-76
2024/03/26 06:49:32;;;;;;;13.00;8.50;;;;;;;9.25;52.67;99707.19;5052052;28;20635;-76
2024/03/26 06:51:57;;;;;;;13.57;7.90;;;;;;;9.18;52.91;99700.28;5052443;28;20166;-76
2024/03/26 06:54:22;;;;;;;8.10;6.40;;;;;;;9.39;52.47;99705.44;5052154;28;20248;-76
2024/03/26 06:56:48;;;;;;;11.27;7.80;;;;;;;9.34;52.73;99702.00;5052247;28;20176;-77
2024/03/26 06:59:14;;;;;;;10.67;7.07;;;;;;;9.55;52.43;99700.19;5051918;28;20567;-77
2024/03/26 07:01:39;;;;;;;11.60;7.10;;;;;;;9.56;52.31;99694.13;5052479;28;20465;-77
2024/03/26 07:04:04;;;;;;;14.00;8.57;;;;;;;9.96;51.63;99683.56;5051777;28;20181;-76
2024/03/26 07:06:30;;;;;;;10.40;8.90;;;;;;;9.54;52.25;99683.72;5050667;28;20197;-77
2024/03/26 07:08:56;;;;;;;10.70;7.50;;;;;;;9.24;52.61;99682.94;5052181;28;20165;-77
2024/03/26 07:11:21;;;;;;;11.53;7.53;;;;;;;9.66;52.37;99680.22;5052136;28;20196;-77
2024/03/26 07:13:48;;;;;;;10.40;7.53;;;;;;;9.80;51.43;99674.09;5052345;28;20189;-76
2024/03/26 07:16:13;;;;;;;9.07;7.70;;;;;;;9.20;52.94;99677.72;5052550;28;20169;-77
2024/03/26 07:18:39;;;;;;;16.90;8.40;;;;;;;9.57;52.11;99677.66;5050531;28;20506;-75
2024/03/26 07:21:05;;;;;;;11.97;7.60;;;;;;;9.49;53.02;99669.88;5051034;28;20215;-76
2024/03/26 07:23:31;;;;;;;11.70;7.40;;;;;;;9.56;52.42;99670.72;5050494;28;20198;-75
2024/03/26 07:25:56;;;;;;;13.07;7.50;;;;;;;9.99;52.20;99664.47;5058933;28;20394;-75
2024/03/26 07:28:21;;;;;;;12.27;7.83;;;;;;;9.86;51.72;99669.72;5070426;28;20513;-76
2024/03/26 07:30:47;;;;;;;10.07;7.40;;;;;;;9.78;51.76;99659.34;5071638;28;20562;-76
2024/03/26 07:33:12;;;;;;;7.80;6.00;;;;;;;9.81;51.40;99657.59;5072298;28;20200;-77
2024/03/26 07:35:37;;;;;;;10.67;6.90;;;;;;;10.01;51.29;99655.78;5072317;28;20177;-77
2024/03/26 07:38:03;;;;;;;9.70;6.50;;;;;;;9.46;52.19;99658.59;5071544;28;20192;-76
2024/03/26 07:40:29;;;;;;;7.63;6.17;;;;;;;10.07;51.42;99647.91;5069990;28;20200;-75
2024/03/26 07:42:55;;;;;;;10.83;6.70;;;;;;;10.14;51.32;99642.69;5066272;28;20228;-76
2024/03/26 07:45:20;;;;;;;10.63;7.10;;;;;;;10.59;50.43;99635.41;5051536;28;20182;-76
2024/03/26 07:47:45;;;;;;;8.00;7.00;;;;;;;10.17;51.66;99632.22;5052370;28;20469;-76
2024/03/26 07:50:11;;;;;;;11.77;6.13;;;;;;;12.04;52.56;99620.78;5052145;28;20186;-79
2024/03/26 07:52:36;;;;;;;10.40;7.23;;;;;;;10.92;49.66;99628.19;5051247;28;20264;-78
2024/03/26 07:55:01;;;;;;;8.67;6.60;;;;;;;9.96;51.10;99631.50;5051739;28;20182;-77
2024/03/26 07:57:27;;;;;;;11.37;6.90;;;;;;;10.13;51.44;99620.09;5051376;28;20177;-75
2024/03/26 07:59:52;;;;;;;10.77;6.80;;;;;;;10.85;50.32;99619.56;5049835;28;20670;-77
2024/03/26 08:02:18;;;;;;;8.70;6.47;;;;;;;11.41;50.03;99616.34;5051346;28;20197;-76
2024/03/26 08:04:43;;;;;;;11.03;6.87;;;;;;;11.31;48.91;99620.78;5051219;28;20174;-76
2024/03/26 08:07:09;;;;;;;11.77;6.93;;;;;;;11.10;49.44;99616.69;5051027;28;20166;-77
2024/03/26 08:09:34;;;;;;;15.73;7.70;;;;;;;10.99;49.98;99615.94;5052749;28;20173;-77
2024/03/26 08:12:00;;;;;;;8.90;6.07;;;;;;;11.26;49.53;99612.19;5055013;28;20230;-77
2024/03/26 08:14:25;;;;;;;11.77;7.57;;;;;;;11.82;48.79;99608.88;5055447;28;20586;-76
2024/03/26 08:16:51;;;;;;;9.47;6.60;;;;;;;12.02;48.04;99604.25;5055258;28;20189;-77
2024/03/26 08:19:17;;;;;;;10.13;6.47;;;;;;;12.17;48.06;99604.94;5054874;28;20169;-77
2024/03/26 08:21:42;;;;;;;9.83;7.37;;;;;;;11.44;48.60;99605.88;5055668;28;20693;-77
2024/03/26 08:24:08;;;;;;;11.60;7.40;;;;;;;11.63;48.45;99603.91;5055979;28;20245;-77
2024/03/26 08:26:33;;;;;;;8.33;6.97;;;;;;;11.76;47.99;99604.59;5055013;28;20180;-75
2024/03/26 08:28:59;;;;;;;12.73;7.23;;;;;;;12.04;48.40;99597.28;5054691;28;20264;-76
2024/03/26 08:31:25;;;;;;;9.97;7.37;;;;;;;12.57;47.42;99597.31;5055177;28;20174;-76
2024/03/26 08:33:50;;;;;;;9.77;7.30;;;;;;;12.07;48.30;99604.19;5056839;28;20194;-77
2024/03/26 08:36:16;;;;;;;9.27;7.40;;;;;;;11.71;48.47;99614.25;5055074;28;20421;-76
2024/03/26 08:38:41;;;;;;;7.20;6.50;;;;;;;11.80;48.26;99601.91;5054954;28;20180;-77
2024/03/26 08:41:07;;;;;;;8.40;6.33;;;;;;;12.07;47.68;99605.06;5056230;28;20185;-77
2024/03/26 08:43:33;;;;;;;10.47;6.10;;;;;;;12.12;47.44;99598.03;5054468;28;20331;-76
2024/03/26 08:45:58;;;;;;;7.37;6.50;;;;;;;12.16;47.54;99595.34;5054752;28;20534;-77
2024/03/26 08:48:23;;;;;;;7.77;6.50;;;;;;;11.92;48.44;99589.56;5053678;28;20181;-77
2024/03/26 08:50:48;;;;;;;8.87;6.30;;;;;;;12.16;47.25;99583.16;5054902;28;20212;-77
2024/03/26 08:53:14;;;;;;;12.53;6.83;;;;;;;12.21;47.27;99583.94;5054935;28;20189;-77
2024/03/26 08:55:39;;;;;;;8.50;6.20;;;;;;;11.91;47.15;99572.19;5054132;28;20170;-76
2024/03/26 08:58:05;;;;;;;7.50;5.77;;;;;;;12.01;47.21;99568.56;5054371;28;20244;-76
2024/03/26 09:00:30;;;;;;;9.70;6.33;;;;;;;12.27;46.65;99565.56;5054884;28;20185;-75
2024/03/26 09:02:56;;;;;;;7.40;6.10;;;;;;;12.52;46.71;99559.91;5054061;28;20220;-75
2024/03/26 09:05:22;;;;;;;8.80;6.50;;;;;;;12.15;46.47;99554.44;5054773;28;20173;-76
2024/03/26 09:07:47;;;;;;;8.80;6.10;;;;;;;12.13;47.33;99551.84;5054411;28;20526;-77
2024/03/26 09:10:13;;;;;;;9.33;6.23;;;;;;;12.56;46.13;99542.44;5054764;28;20169;-77
2024/03/26 09:12:38;;;;;;;9.67;6.07;;;;;;;12.78;45.16;99538.50;5054747;28;20178;-77
2024/03/26 09:15:04;;;;;;;10.03;6.40;;;;;;;13.09;44.64;99531.84;5055083;28;20180;-77
2024/03/26 09:17:29;;;;;;;8.63;6.60;;;;;;;13.26;44.33;99529.75;5052781;28;20185;-76
2024/03/26 09:19:55;;;;;;;23.00;17.70;;;;;;;13.74;42.94;99520.84;5053395;28;20405;-77
2024/03/26 09:22:21;;;;;;;28.90;19.70;;;;;;;13.26;43.30;99523.63;5053680;28;20202;-76
2024/03/26 09:24:46;;;;;;;10.50;8.67;;;;;;;13.46;42.68;99516.25;5053847;28;20766;-75
2024/03/26 09:27:11;;;;;;;13.93;8.20;;;;;;;13.83;41.90;99514.56;5054049;28;20181;-77
2024/03/26 09:29:37;;;;;;;59.87;40.73;;;;;;;13.92;41.82;99501.25;5054413;28;20174;-77
2024/03/26 09:32:02;;;;;;;28.30;23.20;;;;;;;14.02;41.80;99506.25;5054972;28;20186;-76
2024/03/26 09:34:27;;;;;;;7.50;5.93;;;;;;;14.15;40.27;99503.31;5054520;28;20174;-77
2024/03/26 09:36:54;;;;;;;7.97;6.30;;;;;;;13.76;41.38;99503.38;5054996;28;20226;-75
2024/03/26 09:39:20;;;;;;;8.57;6.37;;;;;;;14.40;40.37;99492.19;5069645;28;20257;-77
2024/03/26 09:41:48;;;;;;;8.77;5.50;;;;;;;13.96;40.92;99491.53;5054244;28;20475;-76
2024/03/26 09:44:14;;;;;;;7.07;5.70;;;;;;;14.41;39.99;99475.56;5054351;28;20170;-76
2024/03/26 09:46:40;;;;;;;6.33;5.23;;;;;;;14.81;39.33;99469.22;5054755;28;20404;-76
2024/03/26 09:49:06;;;;;;;6.63;5.67;;;;;;;15.07;38.92;99456.25;5054051;28;20419;-75
2024/03/26 09:51:37;;;;;;;8.73;5.90;;;;;;;14.75;38.40;99450.22;5053508;28;20230;-76
2024/03/26 09:54:03;;;;;;;6.00;5.10;;;;;;;14.61;38.64;99440.03;5053676;28;20916;-76
2024/03/26 09:56:28;;;;;;;9.33;5.77;;;;;;;14.44;38.51;99438.75;5053416;28;20404;-76
2024/03/26 09:58:53;;;;;;;6.17;5.20;;;;;;;14.13;38.91;99454.44;5053059;28;20554;-75
2024/03/26 10:01:25;;;;;;;7.07;5.90;;;;;;;15.27;37.61;99437.28;5052896;28;20181;-76
2024/03/26 10:03:54;;;;;;;6.40;5.50;;;;;;;15.04;37.52;99430.97;5052832;28;20247;-75
2024/03/26 10:06:20;;;;;;;6.60;4.90;;;;;;;15.34;37.77;99430.94;5052782;28;20511;-76
2024/03/26 10:08:46;;;;;;;8.20;5.07;;;;;;;15.24;37.64;99417.25;5053128;28;20499;-76
2024/03/26 10:11:12;;;;;;;8.50;5.60;;;;;;;14.58;38.58;99416.53;5053291;28;20416;-76
2024/03/26 10:13:37;;;;;;;7.63;5.63;;;;;;;14.90;38.39;99406.91;5052925;28;20427;-77
2024/03/26 10:16:03;;;;;;;6.43;5.23;;;;;;;14.08;39.56;99407.38;5052023;28;20174;-76
2024/03/26 10:18:29;;;;;;;33.17;25.30;;;;;;;14.58;39.32;99395.56;5053287;28;20662;-77
2024/03/26 10:20:54;;;;;;;16.93;13.20;;;;;;;15.14;38.38;99387.78;5052901;28;20698;-76
2024/03/26 10:23:19;;;;;;;18.10;14.90;;;;;;;14.88;38.63;99395.59;5053054;28;20558;-77
2024/03/26 10:25:45;;;;;;;20.20;13.70;;;;;;;15.27;38.30;99377.75;5059702;28;20177;-77
2024/03/26 10:28:11;;;;;;;10.10;5.60;;;;;;;15.88;37.84;99375.84;5071636;28;20208;-77
2024/03/26 10:30:37;;;;;;;7.77;5.90;;;;;;;15.87;37.71;99380.25;5072504;28;20415;-76
2024/03/26 10:33:04;;;;;;;7.63;5.53;;;;;;;15.91;36.92;99366.09;5071607;28;20183;-76
2024/03/26 10:35:29;;;;;;;5.93;5.20;;;;;;;16.07;37.14;99360.28;5072375;28;20403;-76
2024/03/26 10:37:56;;;;;;;6.03;5.43;;;;;;;15.38;38.04;99382.66;5072322;28;20400;-75
2024/03/26 10:40:31;;;;;;;6.20;5.03;;;;;;;15.87;37.42;99367.09;5072234;28;20192;-76
2024/03/26 10:42:59;;;;;;;9.80;5.60;;;;;;;16.54;36.31;99368.22;5083060;22;20549;-79
2024/03/26 10:45:25;;;;;;;6.83;5.80;;;;;;;16.78;35.81;99361.19;5058070;28;20426;-78
2024/03/26 10:47:53;;;;;;;5.80;5.20;;;;;;;17.40;35.40;99350.91;5063733;28;20861;-76
2024/03/26 10:50:19;;;;;;;8.03;5.30;;;;;;;17.13;35.61;99347.59;5064847;28;20464;-76
2024/03/26 10:52:47;;;;;;;7.87;5.17;;;;;;;16.86;35.86;99358.28;5058994;28;20432;-78
2024/03/26 10:55:13;;;;;;;8.50;5.90;;;;;;;16.73;36.33;99342.06;5058802;28;20185;-76
2024/03/26 10:57:40;;;;;;;6.53;5.30;;;;;;;17.09;35.60;99341.59;5067396;28;20416;-78
2024/03/26 11:00:12;;;;;;;8.83;5.40;;;;;;;16.83;35.35;99338.19;5060383;28;20420;-78
2024/03/26 11:02:39;;;;;;;5.93;5.27;;;;;;;17.92;34.60;99339.97;5064350;28;20513;-78
2024/03/26 11:05:05;;;;;;;6.30;5.23;;;;;;;17.79;34.37;99329.06;5058544;28;20411;-78
2024/03/26 11:07:35;;;;;;;5.97;5.37;;;;;;;17.97;33.89;99327.44;5056088;28;20423;-77
2024/03/26 11:10:02;;;;;;;7.00;5.50;;;;;;;17.59;34.04;99332.56;5056348;28;20192;-79
2024/03/26 11:12:34;;;;;;;8.00;6.43;;;;;;;17.93;33.67;99319.75;5057470;28;20435;-77
2024/03/26 11:15:15;;;;;;;9.63;5.77;;;;;;;17.84;34.28;99313.06;5059564;28;20404;-76
2024/03/26 11:17:58;;;;;;;5.83;5.20;;;;;;;18.15;33.56;99311.72;5061922;28;20404;-77
2024/03/26 11:20:26;;;;;;;6.47;5.10;;;;;;;17.76;34.39;99313.38;5061341;28;20415;-77
2024/03/26 11:23:01;;;;;;;6.07;4.93;;;;;;;18.63;33.43;99301.63;5061639;28;20468;-78
2024/03/26 11:25:27;;;;;;;5.50;5.00;;;;;;;17.73;34.09;99297.69;5060075;28;20791;-78
2024/03/26 11:27:53;;;;;;;4.90;4.50;;;;;;;18.29;33.02;99290.00;5059318;28;20419;-77